Terminal Aerodrome Forecast
Issued by NWS Jackson, MS

Home | Current Version | Previous Version | Text Only | Print | Product List | Glossary On
Versions: 1 2 3 4 5 6 7 8 9 10 11 12 13 14 15 16 17
000
FTUS44 KMEG 232324
TAFTUP
TAF
KTUP 232324Z 2400/2424 30007KT P6SM BKN025
      TEMPO 2402/2404 SCT025
     FM240400 VRB03KT P6SM SKC
      TEMPO 2409/2413 4SM BR FEW002
     FM241400 07005KT P6SM FEW250
     FM241900 13009KT P6SM FEW035 SCT250=

USA.gov is the U.S. government's official web portal to all federal, state and local government web resources and services.